sensor_id;sensor_type;location;lat;lon;timestamp;pressure;altitude;pressure_sealevel;temperature;humidity
61618;BME280;47518;51.776;9.370;2023-02-19T00:01:32;100217.75;;;9.98;94.51
61618;BME280;47518;51.776;9.370;2023-02-19T00:04:02;100219.63;;;9.98;94.35
61618;BME280;47518;51.776;9.370;2023-02-19T00:06:29;100222.34;;;9.98;94.54
61618;BME280;47518;51.776;9.370;2023-02-19T00:08:55;100213.84;;;9.92;94.98
61618;BME280;47518;51.776;9.370;2023-02-19T00:11:23;100207.13;;;9.72;95.69
61618;BME280;47518;51.776;9.370;2023-02-19T00:13:51;100216.47;;;9.70;95.86
61618;BME280;47518;51.776;9.370;2023-02-19T00:19:11;100194.91;;;9.76;96.30
61618;BME280;47518;51.776;9.370;2023-02-19T00:21:37;100170.28;;;9.86;95.79
61618;BME280;47518;51.776;9.370;2023-02-19T00:24:04;100178.91;;;9.89;95.95
61618;BME280;47518;51.776;9.370;2023-02-19T00:26:29;100160.44;;;9.85;95.00
61618;BME280;47518;51.776;9.370;2023-02-19T00:28:56;100166.56;;;9.79;95.62
61618;BME280;47518;51.776;9.370;2023-02-19T00:31:27;100168.81;;;9.67;95.46
61618;BME280;47518;51.776;9.370;2023-02-19T00:33:56;100164.03;;;9.77;95.91
61618;BME280;47518;51.776;9.370;2023-02-19T00:36:22;100177.31;;;9.64;95.19
61618;BME280;47518;51.776;9.370;2023-02-19T00:38:48;100163.88;;;9.71;96.47
61618;BME280;47518;51.776;9.370;2023-02-19T00:41:15;100151.97;;;9.80;96.19
61618;BME280;47518;51.776;9.370;2023-02-19T00:46:31;100143.22;;;9.61;97.05
61618;BME280;47518;51.776;9.370;2023-02-19T00:48:57;100137.53;;;9.79;95.43
61618;BME280;47518;51.776;9.370;2023-02-19T00:51:26;100129.28;;;9.73;95.76
61618;BME280;47518;51.776;9.370;2023-02-19T00:53:51;100124.81;;;9.32;97.19
61618;BME280;47518;51.776;9.370;2023-02-19T00:56:17;100130.16;;;9.57;97.66
61618;BME280;47518;51.776;9.370;2023-02-19T00:58:42;100142.38;;;9.61;96.46
61618;BME280;47518;51.776;9.370;2023-02-19T01:01:08;100136.91;;;9.69;96.02
61618;BME280;47518;51.776;9.370;2023-02-19T01:03:35;100140.28;;;9.71;95.62
61618;BME280;47518;51.776;9.370;2023-02-19T01:06:01;100143.72;;;9.65;96.41
61618;BME280;47518;51.776;9.370;2023-02-19T01:08:28;100121.19;;;9.48;96.88
61618;BME280;47518;51.776;9.370;2023-02-19T01:10:55;100123.41;;;9.53;97.74
61618;BME280;47518;51.776;9.370;2023-02-19T01:13:21;100122.00;;;9.57;97.14
61618;BME280;47518;51.776;9.370;2023-02-19T01:15:46;100121.47;;;9.70;96.92
61618;BME280;47518;51.776;9.370;2023-02-19T01:18:11;100113.47;;;9.76;97.03
61618;BME280;47518;51.776;9.370;2023-02-19T01:20:40;100120.94;;;9.74;97.22
61618;BME280;47518;51.776;9.370;2023-02-19T01:23:06;100108.72;;;9.70;96.76
61618;BME280;47518;51.776;9.370;2023-02-19T01:25:31;100113.59;;;9.83;96.20
61618;BME280;47518;51.776;9.370;2023-02-19T01:27:57;100107.22;;;9.68;96.71
61618;BME280;47518;51.776;9.370;2023-02-19T01:30:22;100095.88;;;9.64;97.81
61618;BME280;47518;51.776;9.370;2023-02-19T01:32:47;100091.28;;;9.73;97.03
61618;BME280;47518;51.776;9.370;2023-02-19T01:35:12;100109.25;;;9.74;97.02
61618;BME280;47518;51.776;9.370;2023-02-19T01:37:38;100102.34;;;9.55;97.34
61618;BME280;47518;51.776;9.370;2023-02-19T01:40:03;100097.38;;;9.67;97.93
61618;BME280;47518;51.776;9.370;2023-02-19T01:42:29;100098.41;;;9.65;96.79
61618;BME280;47518;51.776;9.370;2023-02-19T01:45:16;100080.72;;;9.39;98.87
61618;BME280;47518;51.776;9.370;2023-02-19T01:47:46;100085.91;;;9.48;98.97
61618;BME280;47518;51.776;9.370;2023-02-19T01:50:13;100075.59;;;9.44;98.77
61618;BME280;47518;51.776;9.370;2023-02-19T01:52:39;100074.97;;;9.25;99.82
61618;BME280;47518;51.776;9.370;2023-02-19T01:55:06;100069.72;;;9.24;100.00
61618;BME280;47518;51.776;9.370;2023-02-19T01:57:38;100081.94;;;9.12;100.00
61618;BME280;47518;51.776;9.370;2023-02-19T02:00:09;100072.78;;;9.13;100.00
61618;BME280;47518;51.776;9.370;2023-02-19T02:02:35;100068.56;;;9.18;100.00
61618;BME280;47518;51.776;9.370;2023-02-19T02:05:00;100065.13;;;9.24;100.00
61618;BME280;47518;51.776;9.370;2023-02-19T02:07:27;100062.94;;;9.28;100.00
61618;BME280;47518;51.776;9.370;2023-02-19T02:10:12;100075.97;;;9.32;100.00
61618;BME280;47518;51.776;9.370;2023-02-19T02:12:49;100050.34;;;9.35;100.00
61618;BME280;47518;51.776;9.370;2023-02-19T02:15:16;100073.44;;;9.31;100.00
61618;BME280;47518;51.776;9.370;2023-02-19T02:30:51;100063.06;;;9.43;100.00
61618;BME280;47518;51.776;9.370;2023-02-19T02:36:09;100064.44;;;9.30;100.00
61618;BME280;47518;51.776;9.370;2023-02-19T02:38:39;100062.38;;;9.41;100.00
61618;BME280;47518;51.776;9.370;2023-02-19T02:41:06;100065.41;;;9.46;100.00
61618;BME280;47518;51.776;9.370;2023-02-19T02:43:32;100046.97;;;9.33;100.00
61618;BME280;47518;51.776;9.370;2023-02-19T02:45:57;100055.78;;;9.35;100.00
61618;BME280;47518;51.776;9.370;2023-02-19T02:51:29;100054.44;;;9.39;99.87
61618;BME280;47518;51.776;9.370;2023-02-19T02:54:00;100066.97;;;9.40;98.75
61618;BME280;47518;51.776;9.370;2023-02-19T02:56:48;100064.09;;;9.33;98.67
61618;BME280;47518;51.776;9.370;2023-02-19T02:59:17;100058.25;;;9.53;99.52
61618;BME280;47518;51.776;9.370;2023-02-19T03:01:56;100071.16;;;9.51;99.33
61618;BME280;47518;51.776;9.370;2023-02-19T03:05:01;100072.69;;;9.53;97.97
61618;BME280;47518;51.776;9.370;2023-02-19T03:07:53;100081.69;;;9.46;98.92
61618;BME280;47518;51.776;9.370;2023-02-19T03:10:25;100077.94;;;9.55;98.02
61618;BME280;47518;51.776;9.370;2023-02-19T03:12:53;100065.88;;;9.57;98.15
61618;BME280;47518;51.776;9.370;2023-02-19T03:15:44;100070.25;;;9.67;97.72
61618;BME280;47518;51.776;9.370;2023-02-19T03:18:32;100064.50;;;9.61;96.59
61618;BME280;47518;51.776;9.370;2023-02-19T03:21:20;100068.28;;;9.52;97.18
61618;BME280;47518;51.776;9.370;2023-02-19T03:23:47;100070.59;;;9.63;96.47
61618;BME280;47518;51.776;9.370;2023-02-19T03:26:33;100074.47;;;9.69;96.47
61618;BME280;47518;51.776;9.370;2023-02-19T03:28:59;100085.56;;;9.90;96.07
61618;BME280;47518;51.776;9.370;2023-02-19T03:31:48;100083.44;;;9.78;95.74
61618;BME280;47518;51.776;9.370;2023-02-19T03:34:21;100076.44;;;9.83;95.48
61618;BME280;47518;51.776;9.370;2023-02-19T03:36:49;100078.75;;;9.94;95.73
61618;BME280;47518;51.776;9.370;2023-02-19T03:39:20;100077.06;;;9.62;95.86
61618;BME280;47518;51.776;9.370;2023-02-19T04:08:14;100096.53;;;9.66;94.74
61618;BME280;47518;51.776;9.370;2023-02-19T04:10:41;100095.22;;;9.62;93.68
61618;BME280;47518;51.776;9.370;2023-02-19T04:13:14;100096.72;;;9.64;94.08
61618;BME280;47518;51.776;9.370;2023-02-19T04:15:42;100108.56;;;9.72;94.66
61618;BME280;47518;51.776;9.370;2023-02-19T04:18:14;100111.13;;;9.65;95.21
61618;BME280;47518;51.776;9.370;2023-02-19T04:20:43;100115.28;;;9.84;94.66
61618;BME280;47518;51.776;9.370;2023-02-19T04:23:10;100113.66;;;9.75;93.27
61618;BME280;47518;51.776;9.370;2023-02-19T04:25:37;100119.06;;;9.75;93.43
61618;BME280;47518;51.776;9.370;2023-02-19T04:28:03;100118.69;;;9.86;93.75
61618;BME280;47518;51.776;9.370;2023-02-19T04:30:29;100126.03;;;9.77;93.04
61618;BME280;47518;51.776;9.370;2023-02-19T04:32:55;100127.44;;;9.57;93.82
61618;BME280;47518;51.776;9.370;2023-02-19T04:35:20;100126.88;;;9.78;93.14
61618;BME280;47518;51.776;9.370;2023-02-19T04:37:45;100124.84;;;9.72;92.25
61618;BME280;47518;51.776;9.370;2023-02-19T04:40:11;100132.78;;;9.81;93.31
61618;BME280;47518;51.776;9.370;2023-02-19T04:42:36;100142.31;;;9.77;93.77
61618;BME280;47518;51.776;9.370;2023-02-19T04:45:02;100145.03;;;9.69;93.22
61618;BME280;47518;51.776;9.370;2023-02-19T04:47:27;100143.91;;;9.55;94.34
61618;BME280;47518;51.776;9.370;2023-02-19T04:49:53;100156.28;;;9.58;94.78
61618;BME280;47518;51.776;9.370;2023-02-19T04:52:18;100165.91;;;9.69;93.73
61618;BME280;47518;51.776;9.370;2023-02-19T04:54:43;100154.88;;;9.70;95.59
61618;BME280;47518;51.776;9.370;2023-02-19T04:57:09;100155.59;;;9.56;96.69
61618;BME280;47518;51.776;9.370;2023-02-19T04:59:34;100166.81;;;9.61;95.86
61618;BME280;47518;51.776;9.370;2023-02-19T05:01:59;100162.91;;;9.47;95.44
61618;BME280;47518;51.776;9.370;2023-02-19T05:04:24;100169.25;;;9.15;98.01
61618;BME280;47518;51.776;9.370;2023-02-19T05:06:50;100166.69;;;9.22;96.87
61618;BME280;47518;51.776;9.370;2023-02-19T05:09:15;100167.03;;;9.27;97.34
61618;BME280;47518;51.776;9.370;2023-02-19T05:11:40;100177.53;;;9.30;97.05
61618;BME280;47518;51.776;9.370;2023-02-19T05:14:06;100183.28;;;9.35;96.45
61618;BME280;47518;51.776;9.370;2023-02-19T05:16:31;100177.84;;;9.43;96.54
61618;BME280;47518;51.776;9.370;2023-02-19T05:19:00;100177.50;;;9.46;95.79
61618;BME280;47518;51.776;9.370;2023-02-19T05:21:25;100176.28;;;9.57;95.76
61618;BME280;47518;51.776;9.370;2023-02-19T05:23:51;100190.09;;;9.31;96.27
61618;BME280;47518;51.776;9.370;2023-02-19T05:26:19;100188.03;;;9.33;95.42
61618;BME280;47518;51.776;9.370;2023-02-19T05:28:47;100187.03;;;9.42;95.13
61618;BME280;47518;51.776;9.370;2023-02-19T05:31:13;100193.16;;;9.03;97.80
61618;BME280;47518;51.776;9.370;2023-02-19T05:33:39;100181.63;;;9.10;96.15
61618;BME280;47518;51.776;9.370;2023-02-19T05:36:09;100192.13;;;9.13;96.63
61618;BME280;47518;51.776;9.370;2023-02-19T05:38:36;100196.88;;;9.11;96.15
61618;BME280;47518;51.776;9.370;2023-02-19T05:41:19;100198.06;;;9.00;95.66
61618;BME280;47518;51.776;9.370;2023-02-19T05:43:46;100206.88;;;9.18;95.41
61618;BME280;47518;51.776;9.370;2023-02-19T05:46:13;100201.97;;;9.05;95.44
61618;BME280;47518;51.776;9.370;2023-02-19T05:48:39;100204.50;;;9.31;94.99
61618;BME280;47518;51.776;9.370;2023-02-19T05:51:07;100214.50;;;9.39;94.17
61618;BME280;47518;51.776;9.370;2023-02-19T05:53:33;100216.22;;;9.16;94.35
61618;BME280;47518;51.776;9.370;2023-02-19T05:55:59;100213.16;;;9.11;94.35
61618;BME280;47518;51.776;9.370;2023-02-19T05:58:24;100213.47;;;9.32;93.80
61618;BME280;47518;51.776;9.370;2023-02-19T06:00:50;100219.06;;;8.98;94.88
61618;BME280;47518;51.776;9.370;2023-02-19T06:03:15;100230.97;;;9.05;95.25
61618;BME280;47518;51.776;9.370;2023-02-19T06:05:41;100243.16;;;9.09;94.67
61618;BME280;47518;51.776;9.370;2023-02-19T06:08:06;100234.16;;;9.09;94.42
61618;BME280;47518;51.776;9.370;2023-02-19T06:35:35;100266.72;;;8.92;94.52
61618;BME280;47518;51.776;9.370;2023-02-19T06:38:00;100275.81;;;8.91;93.68
61618;BME280;47518;51.776;9.370;2023-02-19T06:40:27;100283.47;;;8.96;92.52
61618;BME280;47518;51.776;9.370;2023-02-19T06:42:52;100288.56;;;8.99;91.83
61618;BME280;47518;51.776;9.370;2023-02-19T06:45:18;100298.56;;;8.98;92.19
61618;BME280;47518;51.776;9.370;2023-02-19T06:47:43;100296.22;;;9.03;92.15
61618;BME280;47518;51.776;9.370;2023-02-19T06:50:08;100320.41;;;8.97;90.90
61618;BME280;47518;51.776;9.370;2023-02-19T06:52:33;100323.81;;;8.99;91.84
61618;BME280;47518;51.776;9.370;2023-02-19T06:54:59;100326.88;;;9.12;91.32
61618;BME280;47518;51.776;9.370;2023-02-19T06:57:24;100333.69;;;9.16;92.37
61618;BME280;47518;51.776;9.370;2023-02-19T06:59:49;100323.00;;;9.23;91.35
61618;BME280;47518;51.776;9.370;2023-02-19T07:02:16;100352.34;;;9.27;91.55
61618;BME280;47518;51.776;9.370;2023-02-19T07:04:41;100375.69;;;9.12;90.67
61618;BME280;47518;51.776;9.370;2023-02-19T07:07:09;100378.91;;;9.07;91.45
61618;BME280;47518;51.776;9.370;2023-02-19T07:09:35;100396.44;;;8.79;89.38
61618;BME280;47518;51.776;9.370;2023-02-19T07:12:01;100401.94;;;8.61;89.54
61618;BME280;47518;51.776;9.370;2023-02-19T07:14:27;100404.38;;;8.20;89.27
61618;BME280;47518;51.776;9.370;2023-02-19T07:16:54;100411.28;;;8.15;89.97
61618;BME280;47518;51.776;9.370;2023-02-19T07:19:20;100423.13;;;7.88;89.25
61618;BME280;47518;51.776;9.370;2023-02-19T07:21:45;100432.16;;;7.79;89.87
61618;BME280;47518;51.776;9.370;2023-02-19T07:24:11;100440.28;;;7.79;89.88
61618;BME280;47518;51.776;9.370;2023-02-19T07:26:36;100450.78;;;7.82;90.37
61618;BME280;47518;51.776;9.370;2023-02-19T07:29:01;100460.22;;;7.60;91.12
61618;BME280;47518;51.776;9.370;2023-02-19T07:31:27;100464.34;;;7.64;90.15
61618;BME280;47518;51.776;9.370;2023-02-19T07:33:53;100474.78;;;7.77;90.76
61618;BME280;47518;51.776;9.370;2023-02-19T07:36:20;100490.31;;;7.93;90.25
61618;BME280;47518;51.776;9.370;2023-02-19T07:38:46;100494.72;;;7.76;89.66
61618;BME280;47518;51.776;9.370;2023-02-19T07:41:12;100497.31;;;7.50;90.41
61618;BME280;47518;51.776;9.370;2023-02-19T07:43:38;100502.50;;;7.61;90.04
61618;BME280;47518;51.776;9.370;2023-02-19T07:46:05;100509.31;;;7.65;89.67
61618;BME280;47518;51.776;9.370;2023-02-19T07:48:31;100515.50;;;7.57;90.24
61618;BME280;47518;51.776;9.370;2023-02-19T07:50:58;100529.13;;;7.66;90.22
61618;BME280;47518;51.776;9.370;2023-02-19T07:53:24;100536.94;;;7.69;89.72
61618;BME280;47518;51.776;9.370;2023-02-19T07:55:50;100545.38;;;7.83;89.52
61618;BME280;47518;51.776;9.370;2023-02-19T07:58:16;100544.63;;;7.64;89.31
61618;BME280;47518;51.776;9.370;2023-02-19T08:00:42;100552.47;;;7.67;89.31
61618;BME280;47518;51.776;9.370;2023-02-19T08:03:08;100554.28;;;7.76;89.05
61618;BME280;47518;51.776;9.370;2023-02-19T08:05:36;100560.94;;;7.99;88.84
61618;BME280;47518;51.776;9.370;2023-02-19T08:08:06;100562.59;;;7.82;88.53
61618;BME280;47518;51.776;9.370;2023-02-19T08:10:31;100581.97;;;7.87;89.29
61618;BME280;47518;51.776;9.370;2023-02-19T08:13:17;100587.28;;;7.97;87.55
61618;BME280;47518;51.776;9.370;2023-02-19T08:15:45;100596.94;;;7.82;89.02
61618;BME280;47518;51.776;9.370;2023-02-19T08:18:12;100607.31;;;7.86;88.80
61618;BME280;47518;51.776;9.370;2023-02-19T08:20:38;100612.59;;;7.60;89.13
61618;BME280;47518;51.776;9.370;2023-02-19T08:23:03;100620.50;;;7.72;88.86
61618;BME280;47518;51.776;9.370;2023-02-19T08:25:29;100616.00;;;7.90;87.75
61618;BME280;47518;51.776;9.370;2023-02-19T08:27:54;100618.88;;;7.51;87.36
61618;BME280;47518;51.776;9.370;2023-02-19T08:30:20;100623.81;;;7.66;88.19
61618;BME280;47518;51.776;9.370;2023-02-19T08:32:45;100625.31;;;7.50;87.60
61618;BME280;47518;51.776;9.370;2023-02-19T08:35:11;100625.81;;;7.64;88.70
61618;BME280;47518;51.776;9.370;2023-02-19T08:37:36;100623.19;;;7.54;89.06
61618;BME280;47518;51.776;9.370;2023-02-19T08:40:02;100626.81;;;7.63;88.46
61618;BME280;47518;51.776;9.370;2023-02-19T08:42:28;100623.31;;;7.80;89.09
61618;BME280;47518;51.776;9.370;2023-02-19T08:44:53;100624.66;;;7.94;89.05
61618;BME280;47518;51.776;9.370;2023-02-19T08:47:18;100623.22;;;7.99;88.79
61618;BME280;47518;51.776;9.370;2023-02-19T08:49:44;100621.50;;;8.16;87.93
61618;BME280;47518;51.776;9.370;2023-02-19T08:52:10;100622.91;;;8.02;86.71
61618;BME280;47518;51.776;9.370;2023-02-19T08:54:35;100632.63;;;7.95;87.78
61618;BME280;47518;51.776;9.370;2023-02-19T08:57:01;100630.44;;;8.26;86.89
61618;BME280;47518;51.776;9.370;2023-02-19T08:59:28;100638.56;;;8.44;86.54
61618;BME280;47518;51.776;9.370;2023-02-19T09:01:53;100652.75;;;8.56;86.98
61618;BME280;47518;51.776;9.370;2023-02-19T09:04:18;100656.72;;;8.16;87.28
61618;BME280;47518;51.776;9.370;2023-02-19T09:06:45;100654.38;;;8.03;87.30
61618;BME280;47518;51.776;9.370;2023-02-19T09:09:10;100657.59;;;7.89;87.39
61618;BME280;47518;51.776;9.370;2023-02-19T09:11:38;100663.06;;;7.79;86.87
61618;BME280;47518;51.776;9.370;2023-02-19T09:14:03;100660.19;;;7.81;87.77
61618;BME280;47518;51.776;9.370;2023-02-19T09:16:32;100668.16;;;7.82;86.50
61618;BME280;47518;51.776;9.370;2023-02-19T09:18:57;100669.97;;;7.64;87.07
61618;BME280;47518;51.776;9.370;2023-02-19T09:21:25;100668.69;;;7.68;86.50
61618;BME280;47518;51.776;9.370;2023-02-19T09:23:51;100683.69;;;7.53;87.75
61618;BME280;47518;51.776;9.370;2023-02-19T09:26:20;100677.09;;;7.65;87.34
61618;BME280;47518;51.776;9.370;2023-02-19T09:28:45;100694.06;;;7.57;86.91
61618;BME280;47518;51.776;9.370;2023-02-19T09:31:13;100698.47;;;7.58;87.33
61618;BME280;47518;51.776;9.370;2023-02-19T09:33:43;100702.78;;;7.88;86.48
61618;BME280;47518;51.776;9.370;2023-02-19T09:36:10;100705.03;;;7.93;84.70
61618;BME280;47518;51.776;9.370;2023-02-19T09:38:35;100715.06;;;8.10;84.48
61618;BME280;47518;51.776;9.370;2023-02-19T09:41:14;100711.13;;;7.95;83.99
61618;BME280;47518;51.776;9.370;2023-02-19T09:43:42;100712.34;;;8.10;85.15
61618;BME280;47518;51.776;9.370;2023-02-19T09:46:21;100722.66;;;8.34;84.59
61618;BME280;47518;51.776;9.370;2023-02-19T09:48:47;100725.38;;;8.25;83.60
61618;BME280;47518;51.776;9.370;2023-02-19T09:51:14;100728.94;;;8.25;82.39
61618;BME280;47518;51.776;9.370;2023-02-19T09:53:43;100737.13;;;8.33;81.89
61618;BME280;47518;51.776;9.370;2023-02-19T09:56:11;100739.75;;;8.35;82.45
61618;BME280;47518;51.776;9.370;2023-02-19T09:58:53;100747.44;;;8.30;83.87
61618;BME280;47518;51.776;9.370;2023-02-19T10:01:21;100758.25;;;8.12;82.79
61618;BME280;47518;51.776;9.370;2023-02-19T10:03:48;100769.44;;;7.89;83.65
61618;BME280;47518;51.776;9.370;2023-02-19T10:06:19;100775.47;;;7.74;84.33
61618;BME280;47518;51.776;9.370;2023-02-19T10:08:49;100776.47;;;7.73;85.45
61618;BME280;47518;51.776;9.370;2023-02-19T10:11:16;100784.00;;;7.88;86.53
61618;BME280;47518;51.776;9.370;2023-02-19T10:14:03;100793.84;;;7.70;84.07
61618;BME280;47518;51.776;9.370;2023-02-19T10:16:34;100794.19;;;7.57;84.78
61618;BME280;47518;51.776;9.370;2023-02-19T10:19:11;100790.03;;;7.63;85.35
61618;BME280;47518;51.776;9.370;2023-02-19T10:21:44;100795.81;;;7.87;84.40
61618;BME280;47518;51.776;9.370;2023-02-19T10:24:18;100806.84;;;7.67;85.25
61618;BME280;47518;51.776;9.370;2023-02-19T10:26:45;100818.38;;;7.59;85.24
61618;BME280;47518;51.776;9.370;2023-02-19T10:29:11;100835.06;;;7.64;83.75
61618;BME280;47518;51.776;9.370;2023-02-19T10:31:36;100831.31;;;7.75;83.87
61618;BME280;47518;51.776;9.370;2023-02-19T10:34:02;100831.72;;;7.89;82.98
61618;BME280;47518;51.776;9.370;2023-02-19T10:52:38;100879.88;;;8.42;82.44
61618;BME280;47518;51.776;9.370;2023-02-19T10:58:21;100879.28;;;9.03;78.95
61618;BME280;47518;51.776;9.370;2023-02-19T11:01:08;100877.63;;;9.11;77.27
61618;BME280;47518;51.776;9.370;2023-02-19T11:03:34;100880.97;;;9.22;77.56
61618;BME280;47518;51.776;9.370;2023-02-19T11:06:01;100882.75;;;8.96;78.13
61618;BME280;47518;51.776;9.370;2023-02-19T11:08:29;100879.69;;;8.54;77.92
61618;BME280;47518;51.776;9.370;2023-02-19T11:10:57;100876.63;;;8.19;80.12
61618;BME280;47518;51.776;9.370;2023-02-19T11:13:30;100874.94;;;8.18;80.89
61618;BME280;47518;51.776;9.370;2023-02-19T11:16:00;100879.63;;;8.36;79.36
61618;BME280;47518;51.776;9.370;2023-02-19T11:18:29;100878.50;;;8.56;78.43
61618;BME280;47518;51.776;9.370;2023-02-19T11:20:57;100876.72;;;8.47;78.65
61618;BME280;47518;51.776;9.370;2023-02-19T11:23:26;100878.81;;;8.53;75.56
61618;BME280;47518;51.776;9.370;2023-02-19T11:25:54;100876.47;;;8.31;75.14
61618;BME280;47518;51.776;9.370;2023-02-19T11:28:28;100884.75;;;8.29;74.91
61618;BME280;47518;51.776;9.370;2023-02-19T11:30:54;100885.03;;;8.36;75.92
61618;BME280;47518;51.776;9.370;2023-02-19T11:36:24;100897.19;;;8.87;75.34
61618;BME280;47518;51.776;9.370;2023-02-19T11:38:51;100899.25;;;9.02;72.06
61618;BME280;47518;51.776;9.370;2023-02-19T11:44:56;100890.66;;;9.25;72.44
61618;BME280;47518;51.776;9.370;2023-02-19T12:07:18;100897.09;;;9.06;70.48
61618;BME280;47518;51.776;9.370;2023-02-19T12:09:58;100887.72;;;9.18;71.68
61618;BME280;47518;51.776;9.370;2023-02-19T12:12:40;100887.91;;;9.52;68.99
61618;BME280;47518;51.776;9.370;2023-02-19T12:18:46;100892.19;;;10.50;67.32
61618;BME280;47518;51.776;9.370;2023-02-19T12:39:46;100901.47;;;11.32;61.88
61618;BME280;47518;51.776;9.370;2023-02-19T12:45:30;100898.28;;;11.37;61.06
61618;BME280;47518;51.776;9.370;2023-02-19T12:48:05;100899.97;;;11.38;60.40
61618;BME280;47518;51.776;9.370;2023-02-19T12:50:34;100905.75;;;11.35;58.99
61618;BME280;47518;51.776;9.370;2023-02-19T12:55:51;100911.78;;;11.04;59.42
61618;BME280;47518;51.776;9.370;2023-02-19T12:58:27;100921.75;;;10.79;59.67
61618;BME280;47518;51.776;9.370;2023-02-19T13:00:54;100923.59;;;10.79;60.11
61618;BME280;47518;51.776;9.370;2023-02-19T13:03:30;100926.50;;;10.51;61.57
61618;BME280;47518;51.776;9.370;2023-02-19T13:06:05;100933.72;;;10.17;65.08
61618;BME280;47518;51.776;9.370;2023-02-19T13:21:44;100948.59;;;9.33;65.34
61618;BME280;47518;51.776;9.370;2023-02-19T13:24:35;100958.22;;;9.00;67.44
61618;BME280;47518;51.776;9.370;2023-02-19T13:38:38;100963.28;;;9.13;66.19
61618;BME280;47518;51.776;9.370;2023-02-19T13:41:05;100967.13;;;8.93;66.13
61618;BME280;47518;51.776;9.370;2023-02-19T13:43:33;100972.25;;;9.14;65.81
61618;BME280;47518;51.776;9.370;2023-02-19T13:46:04;100972.16;;;9.15;66.73
61618;BME280;47518;51.776;9.370;2023-02-19T13:48:34;100965.72;;;9.16;66.28
61618;BME280;47518;51.776;9.370;2023-02-19T13:54:00;100948.97;;;9.21;65.42
61618;BME280;47518;51.776;9.370;2023-02-19T14:17:56;100960.72;;;9.57;63.27
61618;BME280;47518;51.776;9.370;2023-02-19T14:20:42;100966.31;;;9.73;63.32
61618;BME280;47518;51.776;9.370;2023-02-19T14:23:22;100969.16;;;9.54;63.46
61618;BME280;47518;51.776;9.370;2023-02-19T14:38:59;100968.69;;;9.13;65.47
61618;BME280;47518;51.776;9.370;2023-02-19T14:41:27;100970.56;;;8.85;65.22
61618;BME280;47518;51.776;9.370;2023-02-19T14:43:56;100970.59;;;8.75;65.11
61618;BME280;47518;51.776;9.370;2023-02-19T14:46:45;100975.28;;;8.83;64.10
61618;BME280;47518;51.776;9.370;2023-02-19T14:49:18;100966.88;;;8.76;64.89
61618;BME280;47518;51.776;9.370;2023-02-19T14:51:49;100987.88;;;8.74;65.77
61618;BME280;47518;51.776;9.370;2023-02-19T14:54:19;100993.44;;;8.73;65.42
61618;BME280;47518;51.776;9.370;2023-02-19T14:56:49;100989.09;;;8.90;65.35
61618;BME280;47518;51.776;9.370;2023-02-19T15:02:13;100999.41;;;8.76;66.23
61618;BME280;47518;51.776;9.370;2023-02-19T15:04:40;101011.75;;;8.61;65.21
61618;BME280;47518;51.776;9.370;2023-02-19T15:07:08;101002.72;;;9.07;64.58
61618;BME280;47518;51.776;9.370;2023-02-19T15:09:39;101001.03;;;8.69;64.60
61618;BME280;47518;51.776;9.370;2023-02-19T15:12:13;101001.44;;;9.02;64.65
61618;BME280;47518;51.776;9.370;2023-02-19T15:14:39;101001.13;;;9.15;63.04
61618;BME280;47518;51.776;9.370;2023-02-19T15:17:05;100991.84;;;9.17;64.99
61618;BME280;47518;51.776;9.370;2023-02-19T15:19:34;100970.94;;;9.27;66.80
61618;BME280;47518;51.776;9.370;2023-02-19T15:22:00;100968.00;;;9.39;65.58
61618;BME280;47518;51.776;9.370;2023-02-19T15:24:26;100963.06;;;9.24;64.17
61618;BME280;47518;51.776;9.370;2023-02-19T15:26:53;100961.03;;;9.09;65.25
61618;BME280;47518;51.776;9.370;2023-02-19T15:29:21;100966.41;;;9.18;64.28
61618;BME280;47518;51.776;9.370;2023-02-19T15:58:17;100961.94;;;8.99;66.65
61618;BME280;47518;51.776;9.370;2023-02-19T16:00:49;100960.28;;;9.16;67.25
61618;BME280;47518;51.776;9.370;2023-02-19T16:03:19;100963.78;;;9.26;68.53
61618;BME280;47518;51.776;9.370;2023-02-19T16:05:46;100964.38;;;9.20;68.10
61618;BME280;47518;51.776;9.370;2023-02-19T16:08:29;100967.78;;;9.22;67.68
61618;BME280;47518;51.776;9.370;2023-02-19T16:10:56;100972.84;;;9.17;68.14
61618;BME280;47518;51.776;9.370;2023-02-19T16:13:25;100970.41;;;9.14;68.18
61618;BME280;47518;51.776;9.370;2023-02-19T16:19:02;100977.47;;;9.07;69.14
61618;BME280;47518;51.776;9.370;2023-02-19T16:21:27;100987.75;;;9.03;70.48
61618;BME280;47518;51.776;9.370;2023-02-19T16:24:00;100991.91;;;8.98;69.20
61618;BME280;47518;51.776;9.370;2023-02-19T16:26:27;101004.78;;;8.96;69.72
61618;BME280;47518;51.776;9.370;2023-02-19T16:28:53;101000.75;;;9.00;70.86
61618;BME280;47518;51.776;9.370;2023-02-19T16:31:21;100995.66;;;8.87;71.39
61618;BME280;47518;51.776;9.370;2023-02-19T16:33:48;101003.81;;;8.87;71.37
61618;BME280;47518;51.776;9.370;2023-02-19T16:36:16;101011.63;;;8.90;71.40
61618;BME280;47518;51.776;9.370;2023-02-19T16:39:07;101016.13;;;8.72;71.88
61618;BME280;47518;51.776;9.370;2023-02-19T16:57:26;101029.59;;;8.54;72.77
61618;BME280;47518;51.776;9.370;2023-02-19T16:59:51;101030.44;;;8.45;73.84
61618;BME280;47518;51.776;9.370;2023-02-19T17:02:20;101033.31;;;8.43;73.02
61618;BME280;47518;51.776;9.370;2023-02-19T17:04:46;101031.72;;;8.31;73.69
61618;BME280;47518;51.776;9.370;2023-02-19T17:07:15;101037.59;;;8.46;74.98
61618;BME280;47518;51.776;9.370;2023-02-19T17:09:41;101032.34;;;8.35;73.58
61618;BME280;47518;51.776;9.370;2023-02-19T17:12:11;101029.63;;;8.35;74.94
61618;BME280;47518;51.776;9.370;2023-02-19T17:14:37;101041.56;;;8.32;74.00
61618;BME280;47518;51.776;9.370;2023-02-19T17:17:03;101037.00;;;8.33;73.92
61618;BME280;47518;51.776;9.370;2023-02-19T17:19:29;101046.44;;;8.19;74.83
61618;BME280;47518;51.776;9.370;2023-02-19T17:21:55;101053.13;;;8.15;73.32
61618;BME280;47518;51.776;9.370;2023-02-19T17:24:20;101059.41;;;8.25;74.08
61618;BME280;47518;51.776;9.370;2023-02-19T17:26:45;101069.94;;;8.18;74.22
61618;BME280;47518;51.776;9.370;2023-02-19T17:29:13;101073.94;;;8.05;72.61